sensor_id;sensor_type;location;lat;lon;timestamp;temperature;humidity
13375;DHT22;6756;51.354;15.754;2022-07-04T00:01:19;17.00;99.90
13375;DHT22;6756;51.354;15.754;2022-07-04T00:05:20;17.00;99.90
13375;DHT22;6756;51.354;15.754;2022-07-04T00:09:20;17.10;99.90
13375;DHT22;6756;51.354;15.754;2022-07-04T00:13:21;17.10;99.90
13375;DHT22;6756;51.354;15.754;2022-07-04T00:17:22;17.10;99.90
13375;DHT22;6756;51.354;15.754;2022-07-04T00:21:23;17.10;99.90
13375;DHT22;6756;51.354;15.754;2022-07-04T00:25:24;17.10;99.90
13375;DHT22;6756;51.354;15.754;2022-07-04T00:29:24;17.10;99.90
13375;DHT22;6756;51.354;15.754;2022-07-04T00:33:25;17.10;99.90
13375;DHT22;6756;51.354;15.754;2022-07-04T00:37:26;17.00;99.90
13375;DHT22;6756;51.354;15.754;2022-07-04T00:41:27;17.10;99.90
13375;DHT22;6756;51.354;15.754;2022-07-04T00:45:27;17.00;1.00
13375;DHT22;6756;51.354;15.754;2022-07-04T00:49:28;17.00;1.00
13375;DHT22;6756;51.354;15.754;2022-07-04T00:53:30;16.80;1.00
13375;DHT22;6756;51.354;15.754;2022-07-04T00:57:30;16.70;1.00
13375;DHT22;6756;51.354;15.754;2022-07-04T01:01:32;16.70;55.30
13375;DHT22;6756;51.354;15.754;2022-07-04T01:05:33;16.50;61.00
13375;DHT22;6756;51.354;15.754;2022-07-04T01:09:34;16.40;99.90
13375;DHT22;6756;51.354;15.754;2022-07-04T01:13:36;16.30;99.90
13375;DHT22;6756;51.354;15.754;2022-07-04T01:17:37;16.30;1.00
13375;DHT22;6756;51.354;15.754;2022-07-04T01:21:38;16.30;1.00
13375;DHT22;6756;51.354;15.754;2022-07-04T01:25:39;16.30;1.00
13375;DHT22;6756;51.354;15.754;2022-07-04T01:29:40;16.30;1.00
13375;DHT22;6756;51.354;15.754;2022-07-04T01:33:41;16.10;1.00
13375;DHT22;6756;51.354;15.754;2022-07-04T01:37:41;16.00;99.90
13375;DHT22;6756;51.354;15.754;2022-07-04T01:41:42;15.90;1.00
13375;DHT22;6756;51.354;15.754;2022-07-04T01:45:43;15.90;99.90
13375;DHT22;6756;51.354;15.754;2022-07-04T01:49:44;15.90;99.90
13375;DHT22;6756;51.354;15.754;2022-07-04T01:53:45;15.90;99.90
13375;DHT22;6756;51.354;15.754;2022-07-04T01:57:46;15.90;99.90
13375;DHT22;6756;51.354;15.754;2022-07-04T02:01:47;15.80;99.90
13375;DHT22;6756;51.354;15.754;2022-07-04T02:05:47;15.80;1.00
13375;DHT22;6756;51.354;15.754;2022-07-04T02:09:49;15.80;18.40
13375;DHT22;6756;51.354;15.754;2022-07-04T02:13:49;15.70;13.50
13375;DHT22;6756;51.354;15.754;2022-07-04T02:17:50;15.60;99.90
13375;DHT22;6756;51.354;15.754;2022-07-04T02:21:51;15.30;99.90
13375;DHT22;6756;51.354;15.754;2022-07-04T02:25:52;15.20;1.00
13375;DHT22;6756;51.354;15.754;2022-07-04T02:29:53;14.90;99.90
13375;DHT22;6756;51.354;15.754;2022-07-04T02:33:53;14.80;1.00
13375;DHT22;6756;51.354;15.754;2022-07-04T02:37:54;14.70;1.00
13375;DHT22;6756;51.354;15.754;2022-07-04T02:41:55;14.60;96.10
13375;DHT22;6756;51.354;15.754;2022-07-04T02:45:56;14.50;1.00
13375;DHT22;6756;51.354;15.754;2022-07-04T02:49:57;14.40;99.90
13375;DHT22;6756;51.354;15.754;2022-07-04T02:53:57;14.40;31.10
13375;DHT22;6756;51.354;15.754;2022-07-04T02:57:58;14.30;99.90
13375;DHT22;6756;51.354;15.754;2022-07-04T03:01:59;14.30;99.90
13375;DHT22;6756;51.354;15.754;2022-07-04T03:06:00;14.30;1.00
13375;DHT22;6756;51.354;15.754;2022-07-04T03:10:01;14.30;1.00
13375;DHT22;6756;51.354;15.754;2022-07-04T03:14:02;14.30;99.90
13375;DHT22;6756;51.354;15.754;2022-07-04T03:18:03;14.30;1.00
13375;DHT22;6756;51.354;15.754;2022-07-04T03:22:03;14.50;1.00
13375;DHT22;6756;51.354;15.754;2022-07-04T03:26:04;15.20;99.90
13375;DHT22;6756;51.354;15.754;2022-07-04T03:30:06;16.10;99.90
13375;DHT22;6756;51.354;15.754;2022-07-04T03:34:06;17.20;99.90
13375;DHT22;6756;51.354;15.754;2022-07-04T03:38:07;18.20;99.90
13375;DHT22;6756;51.354;15.754;2022-07-04T03:42:08;19.10;1.00
13375;DHT22;6756;51.354;15.754;2022-07-04T03:46:09;20.10;99.90
13375;DHT22;6756;51.354;15.754;2022-07-04T03:50:10;20.90;99.90
13375;DHT22;6756;51.354;15.754;2022-07-04T03:54:10;21.50;99.90
13375;DHT22;6756;51.354;15.754;2022-07-04T03:58:11;22.00;99.90
13375;DHT22;6756;51.354;15.754;2022-07-04T04:02:12;22.30;94.90
13375;DHT22;6756;51.354;15.754;2022-07-04T04:06:13;22.40;75.20
13375;DHT22;6756;51.354;15.754;2022-07-04T04:10:14;22.70;53.50
13375;DHT22;6756;51.354;15.754;2022-07-04T04:14:14;22.60;48.10
13375;DHT22;6756;51.354;15.754;2022-07-04T04:18:18;22.80;36.30
13375;DHT22;6756;51.354;15.754;2022-07-04T04:22:20;22.70;30.20
13375;DHT22;6756;51.354;15.754;2022-07-04T04:26:21;22.90;39.00
13375;DHT22;6756;51.354;15.754;2022-07-04T04:30:22;23.70;17.00
13375;DHT22;6756;51.354;15.754;2022-07-04T04:34:23;24.80;1.00
13375;DHT22;6756;51.354;15.754;2022-07-04T04:38:23;25.70;1.00
13375;DHT22;6756;51.354;15.754;2022-07-04T04:42:24;26.10;1.00
13375;DHT22;6756;51.354;15.754;2022-07-04T04:46:25;26.30;1.00
13375;DHT22;6756;51.354;15.754;2022-07-04T04:50:26;26.10;1.00
13375;DHT22;6756;51.354;15.754;2022-07-04T04:54:26;26.20;1.00
13375;DHT22;6756;51.354;15.754;2022-07-04T04:58:27;25.70;1.00
13375;DHT22;6756;51.354;15.754;2022-07-04T05:02:28;25.00;1.00
13375;DHT22;6756;51.354;15.754;2022-07-04T05:06:29;24.60;1.00
13375;DHT22;6756;51.354;15.754;2022-07-04T05:10:30;24.70;1.00
13375;DHT22;6756;51.354;15.754;2022-07-04T05:14:31;24.80;1.00
13375;DHT22;6756;51.354;15.754;2022-07-04T05:18:32;24.60;1.00
13375;DHT22;6756;51.354;15.754;2022-07-04T05:22:32;24.10;1.00
13375;DHT22;6756;51.354;15.754;2022-07-04T05:26:33;23.50;1.00
13375;DHT22;6756;51.354;15.754;2022-07-04T05:30:34;23.30;1.00
13375;DHT22;6756;51.354;15.754;2022-07-04T05:34:35;23.10;1.00
13375;DHT22;6756;51.354;15.754;2022-07-04T05:38:36;23.10;1.00
13375;DHT22;6756;51.354;15.754;2022-07-04T05:42:37;22.90;1.00
13375;DHT22;6756;51.354;15.754;2022-07-04T05:46:37;22.80;1.00
13375;DHT22;6756;51.354;15.754;2022-07-04T05:50:38;22.80;7.10
13375;DHT22;6756;51.354;15.754;2022-07-04T05:54:39;22.90;6.40
13375;DHT22;6756;51.354;15.754;2022-07-04T05:58:40;23.10;7.30
13375;DHT22;6756;51.354;15.754;2022-07-04T06:02:41;23.10;4.70
13375;DHT22;6756;51.354;15.754;2022-07-04T06:06:43;23.00;15.60
13375;DHT22;6756;51.354;15.754;2022-07-04T06:10:43;23.10;14.70
13375;DHT22;6756;51.354;15.754;2022-07-04T06:14:44;23.00;15.80
13375;DHT22;6756;51.354;15.754;2022-07-04T06:18:46;23.10;16.20
13375;DHT22;6756;51.354;15.754;2022-07-04T06:22:48;23.00;17.30
13375;DHT22;6756;51.354;15.754;2022-07-04T06:26:49;23.00;18.80
13375;DHT22;6756;51.354;15.754;2022-07-04T06:30:50;23.20;11.10
13375;DHT22;6756;51.354;15.754;2022-07-04T06:34:51;23.10;11.00
13375;DHT22;6756;51.354;15.754;2022-07-04T06:39:10;22.70;41.00
13375;DHT22;6756;51.354;15.754;2022-07-04T06:43:11;22.50;52.60
13375;DHT22;6756;51.354;15.754;2022-07-04T06:47:13;22.60;88.20
13375;DHT22;6756;51.354;15.754;2022-07-04T06:51:13;22.60;84.10
13375;DHT22;6756;51.354;15.754;2022-07-04T06:55:14;22.50;90.80
13375;DHT22;6756;51.354;15.754;2022-07-04T06:59:15;22.60;63.50
13375;DHT22;6756;51.354;15.754;2022-07-04T07:03:16;22.80;61.40
13375;DHT22;6756;51.354;15.754;2022-07-04T07:07:17;23.00;54.80
13375;DHT22;6756;51.354;15.754;2022-07-04T07:11:18;23.10;47.90
13375;DHT22;6756;51.354;15.754;2022-07-04T07:15:20;23.20;30.60
13375;DHT22;6756;51.354;15.754;2022-07-04T07:19:21;23.30;24.70
13375;DHT22;6756;51.354;15.754;2022-07-04T07:23:22;23.40;18.30
13375;DHT22;6756;51.354;15.754;2022-07-04T07:27:22;23.60;15.90
13375;DHT22;6756;51.354;15.754;2022-07-04T07:31:23;23.80;3.40
13375;DHT22;6756;51.354;15.754;2022-07-04T07:35:24;23.70;10.40
13375;DHT22;6756;51.354;15.754;2022-07-04T07:39:25;23.90;1.00
13375;DHT22;6756;51.354;15.754;2022-07-04T07:43:25;24.00;7.50
13375;DHT22;6756;51.354;15.754;2022-07-04T07:47:26;24.20;1.00
13375;DHT22;6756;51.354;15.754;2022-07-04T07:51:27;24.30;1.00
13375;DHT22;6756;51.354;15.754;2022-07-04T07:55:28;24.20;1.00
13375;DHT22;6756;51.354;15.754;2022-07-04T07:59:29;24.30;1.00
13375;DHT22;6756;51.354;15.754;2022-07-04T08:03:30;24.30;1.00
13375;DHT22;6756;51.354;15.754;2022-07-04T08:07:49;24.60;1.00
13375;DHT22;6756;51.354;15.754;2022-07-04T08:11:50;24.80;1.00
13375;DHT22;6756;51.354;15.754;2022-07-04T08:15:51;25.00;1.00
13375;DHT22;6756;51.354;15.754;2022-07-04T08:19:51;25.00;1.00
13375;DHT22;6756;51.354;15.754;2022-07-04T08:23:53;25.20;1.00
13375;DHT22;6756;51.354;15.754;2022-07-04T08:27:53;25.30;1.00
13375;DHT22;6756;51.354;15.754;2022-07-04T08:31:57;25.30;1.00
13375;DHT22;6756;51.354;15.754;2022-07-04T08:35:58;25.20;1.00
13375;DHT22;6756;51.354;15.754;2022-07-04T08:39:59;25.10;1.00
13375;DHT22;6756;51.354;15.754;2022-07-04T08:44:00;25.00;1.00
13375;DHT22;6756;51.354;15.754;2022-07-04T08:48:08;25.30;1.00
13375;DHT22;6756;51.354;15.754;2022-07-04T08:52:10;25.80;1.00
13375;DHT22;6756;51.354;15.754;2022-07-04T08:56:12;25.90;1.00
13375;DHT22;6756;51.354;15.754;2022-07-04T09:00:31;25.80;1.00
13375;DHT22;6756;51.354;15.754;2022-07-04T09:04:32;25.90;1.00
13375;DHT22;6756;51.354;15.754;2022-07-04T09:08:33;26.00;1.00
13375;DHT22;6756;51.354;15.754;2022-07-04T09:12:34;26.00;1.00
13375;DHT22;6756;51.354;15.754;2022-07-04T09:16:35;26.00;1.00
13375;DHT22;6756;51.354;15.754;2022-07-04T09:20:36;26.10;1.00
13375;DHT22;6756;51.354;15.754;2022-07-04T09:24:50;26.20;1.00
13375;DHT22;6756;51.354;15.754;2022-07-04T09:28:55;26.30;1.00
13375;DHT22;6756;51.354;15.754;2022-07-04T09:32:57;26.40;1.00
13375;DHT22;6756;51.354;15.754;2022-07-04T09:37:01;26.60;1.00
13375;DHT22;6756;51.354;15.754;2022-07-04T09:41:02;26.90;1.00
13375;DHT22;6756;51.354;15.754;2022-07-04T09:45:22;27.00;1.00
13375;DHT22;6756;51.354;15.754;2022-07-04T09:49:24;27.00;1.00
13375;DHT22;6756;51.354;15.754;2022-07-04T09:53:27;27.20;1.00
13375;DHT22;6756;51.354;15.754;2022-07-04T09:57:29;27.20;1.00
13375;DHT22;6756;51.354;15.754;2022-07-04T10:01:31;27.20;1.00
13375;DHT22;6756;51.354;15.754;2022-07-04T10:05:32;27.30;1.00
13375;DHT22;6756;51.354;15.754;2022-07-04T10:09:33;27.20;1.00
13375;DHT22;6756;51.354;15.754;2022-07-04T10:13:33;27.30;1.00
13375;DHT22;6756;51.354;15.754;2022-07-04T10:17:34;27.30;1.00
13375;DHT22;6756;51.354;15.754;2022-07-04T10:21:35;27.40;1.00
13375;DHT22;6756;51.354;15.754;2022-07-04T10:25:36;27.30;1.00
13375;DHT22;6756;51.354;15.754;2022-07-04T10:29:38;27.40;1.00
13375;DHT22;6756;51.354;15.754;2022-07-04T10:33:39;27.50;1.00
13375;DHT22;6756;51.354;15.754;2022-07-04T10:38:05;27.70;1.00
13375;DHT22;6756;51.354;15.754;2022-07-04T10:42:07;27.70;1.00
13375;DHT22;6756;51.354;15.754;2022-07-04T10:50:29;27.60;1.00
13375;DHT22;6756;51.354;15.754;2022-07-04T10:54:34;27.70;1.00
13375;DHT22;6756;51.354;15.754;2022-07-04T10:58:40;27.70;1.00
13375;DHT22;6756;51.354;15.754;2022-07-04T11:02:41;27.60;1.00
13375;DHT22;6756;51.354;15.754;2022-07-04T11:10:43;27.80;1.00
13375;DHT22;6756;51.354;15.754;2022-07-04T11:14:45;27.80;1.00
13375;DHT22;6756;51.354;15.754;2022-07-04T11:18:47;27.70;1.00
13375;DHT22;6756;51.354;15.754;2022-07-04T11:22:48;27.50;1.00
13375;DHT22;6756;51.354;15.754;2022-07-04T11:26:49;27.80;1.00
13375;DHT22;6756;51.354;15.754;2022-07-04T11:30:54;27.80;1.00
13375;DHT22;6756;51.354;15.754;2022-07-04T11:34:55;27.90;1.00
13375;DHT22;6756;51.354;15.754;2022-07-04T11:39:04;28.30;1.00
13375;DHT22;6756;51.354;15.754;2022-07-04T11:43:07;28.40;1.00
13375;DHT22;6756;51.354;15.754;2022-07-04T11:47:35;28.30;1.00
13375;DHT22;6756;51.354;15.754;2022-07-04T11:51:47;28.30;1.00
13375;DHT22;6756;51.354;15.754;2022-07-04T11:55:55;28.20;1.00
13375;DHT22;6756;51.354;15.754;2022-07-04T12:00:03;28.00;1.00
13375;DHT22;6756;51.354;15.754;2022-07-04T12:04:12;28.10;1.00
13375;DHT22;6756;51.354;15.754;2022-07-04T12:08:13;27.90;1.00
13375;DHT22;6756;51.354;15.754;2022-07-04T12:12:15;27.80;1.00
13375;DHT22;6756;51.354;15.754;2022-07-04T12:16:17;28.00;1.00
13375;DHT22;6756;51.354;15.754;2022-07-04T12:20:18;28.30;1.00
13375;DHT22;6756;51.354;15.754;2022-07-04T12:24:19;28.10;1.00
13375;DHT22;6756;51.354;15.754;2022-07-04T12:28:20;28.40;1.00
13375;DHT22;6756;51.354;15.754;2022-07-04T12:32:24;28.20;1.00
13375;DHT22;6756;51.354;15.754;2022-07-04T12:36:54;28.00;1.00
13375;DHT22;6756;51.354;15.754;2022-07-04T12:40:56;28.30;1.00
13375;DHT22;6756;51.354;15.754;2022-07-04T12:45:05;29.00;1.00
13375;DHT22;6756;51.354;15.754;2022-07-04T12:49:07;29.30;1.00
13375;DHT22;6756;51.354;15.754;2022-07-04T12:53:08;29.00;1.00
13375;DHT22;6756;51.354;15.754;2022-07-04T12:57:15;28.80;1.00
13375;DHT22;6756;51.354;15.754;2022-07-04T13:01:16;28.70;1.00
13375;DHT22;6756;51.354;15.754;2022-07-04T13:05:16;28.60;1.00
13375;DHT22;6756;51.354;15.754;2022-07-04T13:09:17;28.80;1.00
13375;DHT22;6756;51.354;15.754;2022-07-04T13:13:18;28.80;1.00
13375;DHT22;6756;51.354;15.754;2022-07-04T13:17:19;28.80;1.00
13375;DHT22;6756;51.354;15.754;2022-07-04T13:21:20;28.50;1.00
13375;DHT22;6756;51.354;15.754;2022-07-04T13:25:21;28.30;1.00
13375;DHT22;6756;51.354;15.754;2022-07-04T13:29:22;28.30;1.00
13375;DHT22;6756;51.354;15.754;2022-07-04T13:33:23;28.40;1.00
13375;DHT22;6756;51.354;15.754;2022-07-04T13:37:24;28.50;1.00
13375;DHT22;6756;51.354;15.754;2022-07-04T13:41:25;28.60;1.00
13375;DHT22;6756;51.354;15.754;2022-07-04T13:45:26;28.70;1.00
13375;DHT22;6756;51.354;15.754;2022-07-04T13:49:27;29.00;1.00
13375;DHT22;6756;51.354;15.754;2022-07-04T13:53:28;29.20;1.00
13375;DHT22;6756;51.354;15.754;2022-07-04T13:57:29;29.00;1.00
13375;DHT22;6756;51.354;15.754;2022-07-04T14:01:30;28.70;1.00
13375;DHT22;6756;51.354;15.754;2022-07-04T14:05:31;28.60;1.00
13375;DHT22;6756;51.354;15.754;2022-07-04T14:09:32;28.60;1.00
13375;DHT22;6756;51.354;15.754;2022-07-04T14:13:33;28.60;1.00
13375;DHT22;6756;51.354;15.754;2022-07-04T14:17:34;28.50;1.00
13375;DHT22;6756;51.354;15.754;2022-07-04T14:21:35;28.30;1.00
13375;DHT22;6756;51.354;15.754;2022-07-04T14:25:36;28.20;1.00
13375;DHT22;6756;51.354;15.754;2022-07-04T14:29:37;28.10;1.00
13375;DHT22;6756;51.354;15.754;2022-07-04T14:33:38;28.30;1.00
13375;DHT22;6756;51.354;15.754;2022-07-04T14:37:39;28.30;1.00
13375;DHT22;6756;51.354;15.754;2022-07-04T14:41:40;28.70;1.00
13375;DHT22;6756;51.354;15.754;2022-07-04T14:45:40;29.00;1.00
13375;DHT22;6756;51.354;15.754;2022-07-04T14:49:41;28.90;1.00
13375;DHT22;6756;51.354;15.754;2022-07-04T14:53:42;28.60;1.00
13375;DHT22;6756;51.354;15.754;2022-07-04T14:57:43;28.50;1.00
13375;DHT22;6756;51.354;15.754;2022-07-04T15:01:44;28.80;1.00
13375;DHT22;6756;51.354;15.754;2022-07-04T15:05:44;28.70;99.90
13375;DHT22;6756;51.354;15.754;2022-07-04T15:09:45;28.70;99.90
13375;DHT22;6756;51.354;15.754;2022-07-04T15:13:46;28.30;1.00
13375;DHT22;6756;51.354;15.754;2022-07-04T15:17:47;28.00;1.00
13375;DHT22;6756;51.354;15.754;2022-07-04T15:21:48;27.70;1.00
13375;DHT22;6756;51.354;15.754;2022-07-04T15:26:07;27.50;1.00
13375;DHT22;6756;51.354;15.754;2022-07-04T15:30:09;27.50;1.00
13375;DHT22;6756;51.354;15.754;2022-07-04T15:34:10;27.50;1.00
13375;DHT22;6756;51.354;15.754;2022-07-04T15:38:11;27.40;1.00
13375;DHT22;6756;51.354;15.754;2022-07-04T15:42:12;27.10;1.00
13375;DHT22;6756;51.354;15.754;2022-07-04T15:46:13;26.90;1.00
13375;DHT22;6756;51.354;15.754;2022-07-04T15:50:14;26.70;1.00
13375;DHT22;6756;51.354;15.754;2022-07-04T15:54:15;26.60;1.00
13375;DHT22;6756;51.354;15.754;2022-07-04T15:58:16;26.50;1.00
13375;DHT22;6756;51.354;15.754;2022-07-04T16:02:16;26.40;1.00
13375;DHT22;6756;51.354;15.754;2022-07-04T16:06:17;26.40;1.00
13375;DHT22;6756;51.354;15.754;2022-07-04T16:10:18;26.30;1.00
13375;DHT22;6756;51.354;15.754;2022-07-04T16:14:20;26.10;1.00
13375;DHT22;6756;51.354;15.754;2022-07-04T16:18:21;25.80;17.90
13375;DHT22;6756;51.354;15.754;2022-07-04T16:22:22;25.40;59.20
13375;DHT22;6756;51.354;15.754;2022-07-04T16:26:22;25.10;99.90
13375;DHT22;6756;51.354;15.754;2022-07-04T16:30:23;24.90;99.90
13375;DHT22;6756;51.354;15.754;2022-07-04T16:34:24;24.80;99.90
13375;DHT22;6756;51.354;15.754;2022-07-04T16:38:25;24.90;99.90
13375;DHT22;6756;51.354;15.754;2022-07-04T16:42:26;25.10;99.90
13375;DHT22;6756;51.354;15.754;2022-07-04T16:46:26;25.60;80.00
13375;DHT22;6756;51.354;15.754;2022-07-04T16:50:27;25.50;79.40
13375;DHT22;6756;51.354;15.754;2022-07-04T16:54:28;25.50;1.00
13375;DHT22;6756;51.354;15.754;2022-07-04T16:58:29;25.40;1.00
13375;DHT22;6756;51.354;15.754;2022-07-04T17:02:29;25.50;1.00
13375;DHT22;6756;51.354;15.754;2022-07-04T17:06:30;25.40;1.00
13375;DHT22;6756;51.354;15.754;2022-07-04T17:10:31;25.50;1.00
13375;DHT22;6756;51.354;15.754;2022-07-04T17:14:32;25.70;1.00
13375;DHT22;6756;51.354;15.754;2022-07-04T17:18:33;25.80;1.00
13375;DHT22;6756;51.354;15.754;2022-07-04T17:22:34;26.00;1.00
13375;DHT22;6756;51.354;15.754;2022-07-04T17:26:37;26.00;1.00
13375;DHT22;6756;51.354;15.754;2022-07-04T17:30:38;25.90;1.00
13375;DHT22;6756;51.354;15.754;2022-07-04T17:34:39;25.70;1.00
13375;DHT22;6756;51.354;15.754;2022-07-04T17:38:39;25.50;1.00
13375;DHT22;6756;51.354;15.754;2022-07-04T17:42:40;25.30;1.00
13375;DHT22;6756;51.354;15.754;2022-07-04T17:46:41;25.20;1.00
13375;DHT22;6756;51.354;15.754;2022-07-04T17:50:43;25.10;10.20
13375;DHT22;6756;51.354;15.754;2022-07-04T17:54:44;25.00;24.30
13375;DHT22;6756;51.354;15.754;2022-07-04T17:58:45;25.00;25.80
13375;DHT22;6756;51.354;15.754;2022-07-04T18:02:46;25.00;12.80
13375;DHT22;6756;51.354;15.754;2022-07-04T18:06:46;24.90;19.60
13375;DHT22;6756;51.354;15.754;2022-07-04T18:10:47;24.80;30.00
13375;DHT22;6756;51.354;15.754;2022-07-04T18:14:48;24.70;99.90
13375;DHT22;6756;51.354;15.754;2022-07-04T18:18:49;24.90;99.90
13375;DHT22;6756;51.354;15.754;2022-07-04T18:22:50;25.90;86.80
13375;DHT22;6756;51.354;15.754;2022-07-04T18:26:52;27.10;4.40
13375;DHT22;6756;51.354;15.754;2022-07-04T18:31:00;27.40;1.00
13375;DHT22;6756;51.354;15.754;2022-07-04T18:35:01;28.40;1.00
13375;DHT22;6756;51.354;15.754;2022-07-04T18:39:04;29.10;1.00
13375;DHT22;6756;51.354;15.754;2022-07-04T18:43:05;29.60;1.00
13375;DHT22;6756;51.354;15.754;2022-07-04T18:47:24;29.70;1.00
13375;DHT22;6756;51.354;15.754;2022-07-04T18:51:25;29.50;1.00
13375;DHT22;6756;51.354;15.754;2022-07-04T18:55:29;29.20;1.00
13375;DHT22;6756;51.354;15.754;2022-07-04T18:59:30;28.70;1.00
13375;DHT22;6756;51.354;15.754;2022-07-04T19:03:31;28.00;1.00
13375;DHT22;6756;51.354;15.754;2022-07-04T19:07:32;27.10;1.00
13375;DHT22;6756;51.354;15.754;2022-07-04T19:11:33;26.10;1.00
13375;DHT22;6756;51.354;15.754;2022-07-04T19:15:34;25.30;54.30
13375;DHT22;6756;51.354;15.754;2022-07-04T19:19:35;24.70;99.90
13375;DHT22;6756;51.354;15.754;2022-07-04T19:23:36;24.10;99.90
13375;DHT22;6756;51.354;15.754;2022-07-04T19:27:37;23.70;99.90
13375;DHT22;6756;51.354;15.754;2022-07-04T19:31:38;23.20;99.90
13375;DHT22;6756;51.354;15.754;2022-07-04T19:35:39;22.90;99.90
13375;DHT22;6756;51.354;15.754;2022-07-04T19:39:40;22.70;1.00
13375;DHT22;6756;51.354;15.754;2022-07-04T19:43:41;22.50;1.00
13375;DHT22;6756;51.354;15.754;2022-07-04T19:47:41;22.20;1.00
13375;DHT22;6756;51.354;15.754;2022-07-04T19:51:43;21.90;99.90
13375;DHT22;6756;51.354;15.754;2022-07-04T19:56:04;21.60;99.90
13375;DHT22;6756;51.354;15.754;2022-07-04T20:00:07;21.40;99.90
13375;DHT22;6756;51.354;15.754;2022-07-04T20:04:09;21.30;99.90
13375;DHT22;6756;51.354;15.754;2022-07-04T20:08:18;21.20;99.90
13375;DHT22;6756;51.354;15.754;2022-07-04T20:12:19;21.10;99.90
13375;DHT22;6756;51.354;15.754;2022-07-04T20:16:23;21.20;99.90
13375;DHT22;6756;51.354;15.754;2022-07-04T20:20:26;21.10;99.90
13375;DHT22;6756;51.354;15.754;2022-07-04T20:24:27;21.00;99.90
13375;DHT22;6756;51.354;15.754;2022-07-04T20:28:27;21.00;99.90
13375;DHT22;6756;51.354;15.754;2022-07-04T20:32:28;21.00;99.90
13375;DHT22;6756;51.354;15.754;2022-07-04T20:36:29;21.00;99.90
13375;DHT22;6756;51.354;15.754;2022-07-04T20:40:30;20.80;99.90
13375;DHT22;6756;51.354;15.754;2022-07-04T20:44:31;20.70;99.90
13375;DHT22;6756;51.354;15.754;2022-07-04T20:48:32;20.70;99.90
13375;DHT22;6756;51.354;15.754;2022-07-04T20:52:33;20.70;99.90
13375;DHT22;6756;51.354;15.754;2022-07-04T20:56:34;20.80;99.90
13375;DHT22;6756;51.354;15.754;2022-07-04T21:00:37;21.10;37.50
13375;DHT22;6756;51.354;15.754;2022-07-04T21:04:40;21.30;1.00
13375;DHT22;6756;51.354;15.754;2022-07-04T21:08:41;21.20;1.00
13375;DHT22;6756;51.354;15.754;2022-07-04T21:12:42;20.90;73.30
13375;DHT22;6756;51.354;15.754;2022-07-04T21:16:43;20.60;99.90
13375;DHT22;6756;51.354;15.754;2022-07-04T21:20:44;20.30;99.90
13375;DHT22;6756;51.354;15.754;2022-07-04T21:24:44;20.00;99.90
13375;DHT22;6756;51.354;15.754;2022-07-04T21:28:45;19.70;1.00
13375;DHT22;6756;51.354;15.754;2022-07-04T21:32:46;19.50;28.20
13375;DHT22;6756;51.354;15.754;2022-07-04T21:36:47;19.10;99.90
13375;DHT22;6756;51.354;15.754;2022-07-04T21:40:48;18.90;99.90
13375;DHT22;6756;51.354;15.754;2022-07-04T21:44:48;18.70;99.90
13375;DHT22;6756;51.354;15.754;2022-07-04T21:48:49;18.60;99.90
13375;DHT22;6756;51.354;15.754;2022-07-04T21:52:50;18.50;99.90
13375;DHT22;6756;51.354;15.754;2022-07-04T21:56:51;18.40;99.90
13375;DHT22;6756;51.354;15.754;2022-07-04T22:00:52;18.30;99.90
13375;DHT22;6756;51.354;15.754;2022-07-04T22:04:53;18.10;99.90
13375;DHT22;6756;51.354;15.754;2022-07-04T22:08:53;18.00;99.90
13375;DHT22;6756;51.354;15.754;2022-07-04T22:12:54;17.90;99.90
13375;DHT22;6756;51.354;15.754;2022-07-04T22:16:55;17.80;99.90
13375;DHT22;6756;51.354;15.754;2022-07-04T22:20:56;17.80;99.90
13375;DHT22;6756;51.354;15.754;2022-07-04T22:25:00;17.70;99.90
13375;DHT22;6756;51.354;15.754;2022-07-04T22:29:00;17.70;99.90
13375;DHT22;6756;51.354;15.754;2022-07-04T22:33:01;17.60;99.90
13375;DHT22;6756;51.354;15.754;2022-07-04T22:37:02;17.60;99.90
13375;DHT22;6756;51.354;15.754;2022-07-04T22:41:03;17.50;99.90
13375;DHT22;6756;51.354;15.754;2022-07-04T22:45:05;17.40;99.90
13375;DHT22;6756;51.354;15.754;2022-07-04T22:49:06;17.30;99.90
13375;DHT22;6756;51.354;15.754;2022-07-04T22:53:07;17.20;99.90
13375;DHT22;6756;51.354;15.754;2022-07-04T22:57:29;17.20;99.90
13375;DHT22;6756;51.354;15.754;2022-07-04T23:01:30;17.30;25.60
13375;DHT22;6756;51.354;15.754;2022-07-04T23:05:31;17.30;1.00
13375;DHT22;6756;51.354;15.754;2022-07-04T23:09:32;17.30;1.00
13375;DHT22;6756;51.354;15.754;2022-07-04T23:13:33;17.10;18.10
13375;DHT22;6756;51.354;15.754;2022-07-04T23:17:34;16.90;99.90
13375;DHT22;6756;51.354;15.754;2022-07-04T23:21:34;16.80;99.90
13375;DHT22;6756;51.354;15.754;2022-07-04T23:25:35;16.80;1.00
13375;DHT22;6756;51.354;15.754;2022-07-04T23:29:36;16.70;1.00
13375;DHT22;6756;51.354;15.754;2022-07-04T23:33:37;16.70;1.00
13375;DHT22;6756;51.354;15.754;2022-07-04T23:37:38;16.70;1.00
13375;DHT22;6756;51.354;15.754;2022-07-04T23:41:39;16.80;1.00
13375;DHT22;6756;51.354;15.754;2022-07-04T23:45:40;16.90;99.90
13375;DHT22;6756;51.354;15.754;2022-07-04T23:49:40;17.00;99.90
13375;DHT22;6756;51.354;15.754;2022-07-04T23:53:41;17.10;99.90
13375;DHT22;6756;51.354;15.754;2022-07-04T23:57:42;17.20;73.40
